sensor_id;sensor_type;location;lat;lon;timestamp;pressure;altitude;pressure_sealevel;temperature;humidity
16525;BME280;8375;33.594;-117.718;2023-03-18T00:00:11;100146.22;;;20.52;52.63
16525;BME280;8375;33.594;-117.718;2023-03-18T00:02:43;100146.16;;;20.45;53.82
16525;BME280;8375;33.594;-117.718;2023-03-18T00:05:12;100142.16;;;20.49;53.41
16525;BME280;8375;33.594;-117.718;2023-03-18T00:07:40;100153.13;;;20.53;54.08
16525;BME280;8375;33.594;-117.718;2023-03-18T00:10:11;100143.22;;;20.55;53.51
16525;BME280;8375;33.594;-117.718;2023-03-18T00:12:41;100145.56;;;20.65;54.05
16525;BME280;8375;33.594;-117.718;2023-03-18T00:15:12;100145.63;;;20.72;53.63
16525;BME280;8375;33.594;-117.718;2023-03-18T00:17:43;100153.81;;;20.77;53.70
16525;BME280;8375;33.594;-117.718;2023-03-18T00:20:12;100140.75;;;20.84;53.88
16525;BME280;8375;33.594;-117.718;2023-03-18T00:22:42;100149.66;;;20.67;53.65
16525;BME280;8375;33.594;-117.718;2023-03-18T00:25:14;100141.19;;;20.72;54.18
16525;BME280;8375;33.594;-117.718;2023-03-18T00:27:42;100142.81;;;20.73;54.77
16525;BME280;8375;33.594;-117.718;2023-03-18T00:30:12;100141.75;;;20.67;54.62
16525;BME280;8375;33.594;-117.718;2023-03-18T00:32:40;100138.84;;;20.62;54.81
16525;BME280;8375;33.594;-117.718;2023-03-18T00:35:09;100130.50;;;20.59;55.04
16525;BME280;8375;33.594;-117.718;2023-03-18T00:37:38;100136.06;;;20.49;54.68
16525;BME280;8375;33.594;-117.718;2023-03-18T00:40:09;100136.72;;;20.36;52.88
16525;BME280;8375;33.594;-117.718;2023-03-18T00:42:44;100140.56;;;20.18;52.34
16525;BME280;8375;33.594;-117.718;2023-03-18T00:45:16;100137.38;;;19.93;53.53
16525;BME280;8375;33.594;-117.718;2023-03-18T00:47:45;100141.84;;;19.69;53.87
16525;BME280;8375;33.594;-117.718;2023-03-18T00:50:15;100144.34;;;19.47;54.90
16525;BME280;8375;33.594;-117.718;2023-03-18T00:52:44;100150.47;;;19.01;55.34
16525;BME280;8375;33.594;-117.718;2023-03-18T00:55:12;100153.34;;;18.83;56.78
16525;BME280;8375;33.594;-117.718;2023-03-18T00:57:41;100150.00;;;18.89;58.81
16525;BME280;8375;33.594;-117.718;2023-03-18T01:00:12;100159.59;;;18.82;57.92
16525;BME280;8375;33.594;-117.718;2023-03-18T01:02:43;100163.75;;;18.76;58.58
16525;BME280;8375;33.594;-117.718;2023-03-18T01:05:14;100163.59;;;18.70;59.28
16525;BME280;8375;33.594;-117.718;2023-03-18T01:07:43;100167.75;;;18.64;58.61
16525;BME280;8375;33.594;-117.718;2023-03-18T01:10:12;100169.09;;;18.52;59.08
16525;BME280;8375;33.594;-117.718;2023-03-18T01:12:42;100167.50;;;18.42;59.01
16525;BME280;8375;33.594;-117.718;2023-03-18T01:15:16;100177.69;;;18.37;60.67
16525;BME280;8375;33.594;-117.718;2023-03-18T01:17:45;100179.84;;;18.33;61.00
16525;BME280;8375;33.594;-117.718;2023-03-18T01:20:15;100182.22;;;18.12;60.48
16525;BME280;8375;33.594;-117.718;2023-03-18T01:22:45;100177.94;;;17.94;61.79
16525;BME280;8375;33.594;-117.718;2023-03-18T01:25:14;100175.81;;;17.81;63.81
16525;BME280;8375;33.594;-117.718;2023-03-18T01:27:43;100186.00;;;17.76;62.37
16525;BME280;8375;33.594;-117.718;2023-03-18T01:30:14;100186.00;;;17.68;62.72
16525;BME280;8375;33.594;-117.718;2023-03-18T01:32:43;100178.13;;;17.43;64.37
16525;BME280;8375;33.594;-117.718;2023-03-18T01:35:12;100184.88;;;17.37;64.81
16525;BME280;8375;33.594;-117.718;2023-03-18T01:37:41;100185.53;;;17.39;65.62
16525;BME280;8375;33.594;-117.718;2023-03-18T01:40:11;100184.69;;;17.30;66.26
16525;BME280;8375;33.594;-117.718;2023-03-18T01:42:41;100197.00;;;17.22;66.40
16525;BME280;8375;33.594;-117.718;2023-03-18T01:45:19;100204.19;;;17.20;67.02
16525;BME280;8375;33.594;-117.718;2023-03-18T01:47:49;100205.31;;;17.17;67.97
16525;BME280;8375;33.594;-117.718;2023-03-18T01:50:21;100206.81;;;17.20;67.99
16525;BME280;8375;33.594;-117.718;2023-03-18T01:52:53;100205.31;;;17.17;68.38
16525;BME280;8375;33.594;-117.718;2023-03-18T01:55:24;100214.34;;;17.14;69.74
16525;BME280;8375;33.594;-117.718;2023-03-18T01:57:54;100218.09;;;17.12;68.89
16525;BME280;8375;33.594;-117.718;2023-03-18T02:00:25;100210.06;;;17.05;70.31
16525;BME280;8375;33.594;-117.718;2023-03-18T02:02:54;100208.56;;;17.03;69.98
16525;BME280;8375;33.594;-117.718;2023-03-18T02:05:25;100215.59;;;16.94;71.09
16525;BME280;8375;33.594;-117.718;2023-03-18T02:07:54;100214.91;;;16.92;71.07
16525;BME280;8375;33.594;-117.718;2023-03-18T02:10:25;100215.91;;;16.91;72.33
16525;BME280;8375;33.594;-117.718;2023-03-18T02:12:57;100231.38;;;16.67;72.31
16525;BME280;8375;33.594;-117.718;2023-03-18T02:15:28;100232.81;;;16.62;74.12
16525;BME280;8375;33.594;-117.718;2023-03-18T02:18:02;100232.81;;;16.62;74.86
16525;BME280;8375;33.594;-117.718;2023-03-18T02:20:42;100239.03;;;16.61;75.28
16525;BME280;8375;33.594;-117.718;2023-03-18T02:23:23;100238.69;;;16.55;74.05
16525;BME280;8375;33.594;-117.718;2023-03-18T02:25:57;100242.91;;;16.48;75.49
16525;BME280;8375;33.594;-117.718;2023-03-18T02:28:30;100238.59;;;16.39;76.90
16525;BME280;8375;33.594;-117.718;2023-03-18T02:31:01;100241.63;;;16.26;75.14
16525;BME280;8375;33.594;-117.718;2023-03-18T02:33:33;100247.72;;;16.08;74.31
16525;BME280;8375;33.594;-117.718;2023-03-18T02:36:06;100246.09;;;16.07;75.46
16525;BME280;8375;33.594;-117.718;2023-03-18T02:38:40;100252.25;;;15.98;76.33
16525;BME280;8375;33.594;-117.718;2023-03-18T02:41:14;100249.78;;;15.96;77.45
16525;BME280;8375;33.594;-117.718;2023-03-18T02:43:46;100256.66;;;15.97;77.80
16525;BME280;8375;33.594;-117.718;2023-03-18T02:46:34;100268.56;;;15.92;78.76
16525;BME280;8375;33.594;-117.718;2023-03-18T02:49:05;100274.34;;;15.86;79.08
16525;BME280;8375;33.594;-117.718;2023-03-18T02:51:35;100283.91;;;15.77;78.59
16525;BME280;8375;33.594;-117.718;2023-03-18T02:54:07;100276.00;;;15.68;77.38
16525;BME280;8375;33.594;-117.718;2023-03-18T02:56:37;100267.41;;;15.58;79.85
16525;BME280;8375;33.594;-117.718;2023-03-18T02:59:08;100273.75;;;15.55;79.51
16525;BME280;8375;33.594;-117.718;2023-03-18T03:01:38;100278.66;;;15.40;79.14
16525;BME280;8375;33.594;-117.718;2023-03-18T03:04:08;100277.41;;;15.27;80.98
16525;BME280;8375;33.594;-117.718;2023-03-18T03:06:38;100277.00;;;15.21;81.60
16525;BME280;8375;33.594;-117.718;2023-03-18T03:09:10;100288.94;;;15.24;82.59
16525;BME280;8375;33.594;-117.718;2023-03-18T03:11:40;100289.25;;;15.21;83.24
16525;BME280;8375;33.594;-117.718;2023-03-18T03:14:12;100291.63;;;15.14;82.25
16525;BME280;8375;33.594;-117.718;2023-03-18T03:16:41;100295.25;;;15.03;80.40
16525;BME280;8375;33.594;-117.718;2023-03-18T03:19:09;100305.47;;;14.96;82.04
16525;BME280;8375;33.594;-117.718;2023-03-18T03:21:38;100317.75;;;14.86;82.97
16525;BME280;8375;33.594;-117.718;2023-03-18T03:24:08;100315.44;;;14.83;85.20
16525;BME280;8375;33.594;-117.718;2023-03-18T03:26:37;100320.50;;;14.85;84.89
16525;BME280;8375;33.594;-117.718;2023-03-18T03:29:05;100320.94;;;14.80;85.89
16525;BME280;8375;33.594;-117.718;2023-03-18T03:31:36;100323.69;;;14.78;86.00
16525;BME280;8375;33.594;-117.718;2023-03-18T03:34:05;100334.56;;;14.74;86.42
16525;BME280;8375;33.594;-117.718;2023-03-18T03:36:34;100326.19;;;14.70;86.88
16525;BME280;8375;33.594;-117.718;2023-03-18T03:39:02;100327.56;;;14.64;88.18
16525;BME280;8375;33.594;-117.718;2023-03-18T03:41:31;100340.06;;;14.61;87.88
16525;BME280;8375;33.594;-117.718;2023-03-18T03:44:00;100346.81;;;14.53;88.48
16525;BME280;8375;33.594;-117.718;2023-03-18T03:46:28;100343.00;;;14.48;89.15
16525;BME280;8375;33.594;-117.718;2023-03-18T03:48:59;100356.44;;;14.43;89.05
16525;BME280;8375;33.594;-117.718;2023-03-18T03:51:27;100349.44;;;14.34;89.96
16525;BME280;8375;33.594;-117.718;2023-03-18T03:53:56;100348.78;;;14.32;90.06
16525;BME280;8375;33.594;-117.718;2023-03-18T03:56:25;100335.59;;;14.23;91.09
16525;BME280;8375;33.594;-117.718;2023-03-18T03:58:54;100338.34;;;14.12;91.86
16525;BME280;8375;33.594;-117.718;2023-03-18T04:01:23;100343.69;;;14.01;93.49
16525;BME280;8375;33.594;-117.718;2023-03-18T04:03:52;100344.25;;;14.04;93.13
16525;BME280;8375;33.594;-117.718;2023-03-18T04:06:22;100348.91;;;14.01;93.28
16525;BME280;8375;33.594;-117.718;2023-03-18T04:08:51;100344.66;;;14.00;94.02
16525;BME280;8375;33.594;-117.718;2023-03-18T04:11:20;100347.69;;;13.95;95.02
16525;BME280;8375;33.594;-117.718;2023-03-18T04:13:49;100356.31;;;13.96;94.71
16525;BME280;8375;33.594;-117.718;2023-03-18T04:16:18;100349.03;;;13.89;94.49
16525;BME280;8375;33.594;-117.718;2023-03-18T04:18:46;100346.97;;;13.83;94.78
16525;BME280;8375;33.594;-117.718;2023-03-18T04:21:15;100348.75;;;13.73;95.70
16525;BME280;8375;33.594;-117.718;2023-03-18T04:23:45;100359.44;;;13.70;95.97
16525;BME280;8375;33.594;-117.718;2023-03-18T04:26:14;100356.16;;;13.68;96.83
16525;BME280;8375;33.594;-117.718;2023-03-18T04:28:43;100370.72;;;13.70;96.63
16525;BME280;8375;33.594;-117.718;2023-03-18T04:31:12;100365.47;;;13.60;97.09
16525;BME280;8375;33.594;-117.718;2023-03-18T04:33:40;100368.91;;;13.61;97.32
16525;BME280;8375;33.594;-117.718;2023-03-18T04:36:10;100373.72;;;13.56;96.88
16525;BME280;8375;33.594;-117.718;2023-03-18T04:38:38;100383.56;;;13.52;97.78
16525;BME280;8375;33.594;-117.718;2023-03-18T04:41:09;100377.13;;;13.46;97.94
16525;BME280;8375;33.594;-117.718;2023-03-18T04:43:38;100376.97;;;13.48;98.18
16525;BME280;8375;33.594;-117.718;2023-03-18T04:46:07;100381.50;;;13.46;98.13
16525;BME280;8375;33.594;-117.718;2023-03-18T04:48:37;100385.56;;;13.39;98.39
16525;BME280;8375;33.594;-117.718;2023-03-18T04:51:06;100388.44;;;13.35;98.60
16525;BME280;8375;33.594;-117.718;2023-03-18T04:53:36;100388.44;;;13.35;98.68
16525;BME280;8375;33.594;-117.718;2023-03-18T04:56:05;100388.69;;;13.32;99.64
16525;BME280;8375;33.594;-117.718;2023-03-18T04:58:35;100389.09;;;13.28;100.00
16525;BME280;8375;33.594;-117.718;2023-03-18T05:01:04;100398.69;;;13.27;99.98
16525;BME280;8375;33.594;-117.718;2023-03-18T05:03:33;100398.94;;;13.24;99.44
16525;BME280;8375;33.594;-117.718;2023-03-18T05:06:02;100400.16;;;13.20;99.66
16525;BME280;8375;33.594;-117.718;2023-03-18T05:08:30;100403.72;;;13.19;99.86
16525;BME280;8375;33.594;-117.718;2023-03-18T05:11:00;100402.88;;;13.18;100.00
16525;BME280;8375;33.594;-117.718;2023-03-18T05:13:28;100400.53;;;13.15;100.00
16525;BME280;8375;33.594;-117.718;2023-03-18T05:15:59;100411.09;;;13.14;100.00
16525;BME280;8375;33.594;-117.718;2023-03-18T05:18:27;100419.44;;;13.08;100.00
16525;BME280;8375;33.594;-117.718;2023-03-18T05:20:56;100414.34;;;13.06;100.00
16525;BME280;8375;33.594;-117.718;2023-03-18T05:23:25;100416.50;;;13.01;100.00
16525;BME280;8375;33.594;-117.718;2023-03-18T05:25:54;100417.03;;;12.95;100.00
16525;BME280;8375;33.594;-117.718;2023-03-18T05:28:23;100416.47;;;12.91;100.00
16525;BME280;8375;33.594;-117.718;2023-03-18T05:30:51;100416.72;;;12.88;100.00
16525;BME280;8375;33.594;-117.718;2023-03-18T05:33:22;100417.53;;;12.88;100.00
16525;BME280;8375;33.594;-117.718;2023-03-18T05:35:50;100424.78;;;12.64;100.00
16525;BME280;8375;33.594;-117.718;2023-03-18T05:38:19;100425.63;;;12.64;100.00
16525;BME280;8375;33.594;-117.718;2023-03-18T05:40:48;100425.63;;;12.64;100.00
16525;BME280;8375;33.594;-117.718;2023-03-18T05:43:16;100427.28;;;12.65;100.00
16525;BME280;8375;33.594;-117.718;2023-03-18T05:45:45;100427.78;;;12.59;100.00
16525;BME280;8375;33.594;-117.718;2023-03-18T05:48:14;100429.53;;;12.58;100.00
16525;BME280;8375;33.594;-117.718;2023-03-18T05:50:44;100425.78;;;12.51;100.00
16525;BME280;8375;33.594;-117.718;2023-03-18T05:53:13;100422.66;;;12.36;100.00
16525;BME280;8375;33.594;-117.718;2023-03-18T05:55:43;100420.31;;;12.33;100.00
16525;BME280;8375;33.594;-117.718;2023-03-18T05:58:11;100427.41;;;12.31;100.00
16525;BME280;8375;33.594;-117.718;2023-03-18T06:00:40;100420.31;;;12.33;100.00
16525;BME280;8375;33.594;-117.718;2023-03-18T06:03:08;100429.31;;;12.29;100.00
16525;BME280;8375;33.594;-117.718;2023-03-18T06:05:37;100416.78;;;12.23;100.00
16525;BME280;8375;33.594;-117.718;2023-03-18T06:08:07;100426.97;;;12.26;100.00
16525;BME280;8375;33.594;-117.718;2023-03-18T06:10:36;100426.50;;;12.21;100.00
16525;BME280;8375;33.594;-117.718;2023-03-18T06:13:05;100431.81;;;12.19;100.00
16525;BME280;8375;33.594;-117.718;2023-03-18T06:15:34;100430.28;;;12.16;100.00
16525;BME280;8375;33.594;-117.718;2023-03-18T06:18:04;100423.69;;;12.12;100.00
16525;BME280;8375;33.594;-117.718;2023-03-18T06:20:33;100427.47;;;12.08;100.00
16525;BME280;8375;33.594;-117.718;2023-03-18T06:23:01;100422.38;;;12.07;100.00
16525;BME280;8375;33.594;-117.718;2023-03-18T06:25:32;100427.03;;;12.03;100.00
16525;BME280;8375;33.594;-117.718;2023-03-18T06:28:00;100426.38;;;11.99;100.00
16525;BME280;8375;33.594;-117.718;2023-03-18T06:30:29;100428.28;;;11.97;100.00
16525;BME280;8375;33.594;-117.718;2023-03-18T06:32:59;100435.53;;;11.94;100.00
16525;BME280;8375;33.594;-117.718;2023-03-18T06:35:27;100433.03;;;11.92;100.00
16525;BME280;8375;33.594;-117.718;2023-03-18T06:37:57;100439.78;;;11.95;100.00
16525;BME280;8375;33.594;-117.718;2023-03-18T06:40:26;100433.16;;;11.91;100.00
16525;BME280;8375;33.594;-117.718;2023-03-18T06:42:56;100430.41;;;11.92;100.00
16525;BME280;8375;33.594;-117.718;2023-03-18T06:45:25;100445.78;;;11.95;100.00
16525;BME280;8375;33.594;-117.718;2023-03-18T06:47:54;100437.88;;;11.97;100.00
16525;BME280;8375;33.594;-117.718;2023-03-18T06:50:22;100430.31;;;11.94;100.00
16525;BME280;8375;33.594;-117.718;2023-03-18T06:52:51;100444.75;;;11.86;100.00
16525;BME280;8375;33.594;-117.718;2023-03-18T06:55:20;100439.09;;;11.81;100.00
16525;BME280;8375;33.594;-117.718;2023-03-18T06:57:49;100437.44;;;11.80;100.00
16525;BME280;8375;33.594;-117.718;2023-03-18T07:00:20;100431.63;;;11.77;100.00
16525;BME280;8375;33.594;-117.718;2023-03-18T07:02:50;100432.56;;;11.76;100.00
16525;BME280;8375;33.594;-117.718;2023-03-18T07:05:19;100428.47;;;11.73;100.00
16525;BME280;8375;33.594;-117.718;2023-03-18T07:07:48;100432.00;;;11.72;100.00
16525;BME280;8375;33.594;-117.718;2023-03-18T07:10:19;100424.78;;;11.64;100.00
16525;BME280;8375;33.594;-117.718;2023-03-18T07:12:48;100425.72;;;11.63;100.00
16525;BME280;8375;33.594;-117.718;2023-03-18T07:15:19;100418.31;;;11.58;100.00
16525;BME280;8375;33.594;-117.718;2023-03-18T07:17:49;100417.84;;;11.53;100.00
16525;BME280;8375;33.594;-117.718;2023-03-18T07:20:21;100410.97;;;11.52;100.00
16525;BME280;8375;33.594;-117.718;2023-03-18T07:22:49;100416.41;;;11.49;100.00
16525;BME280;8375;33.594;-117.718;2023-03-18T07:25:18;100405.31;;;11.47;100.00
16525;BME280;8375;33.594;-117.718;2023-03-18T07:27:47;100406.59;;;11.41;100.00
16525;BME280;8375;33.594;-117.718;2023-03-18T07:30:16;100408.38;;;11.41;100.00
16525;BME280;8375;33.594;-117.718;2023-03-18T07:32:48;100418.53;;;11.33;100.00
16525;BME280;8375;33.594;-117.718;2023-03-18T07:35:17;100411.47;;;11.35;100.00
16525;BME280;8375;33.594;-117.718;2023-03-18T07:37:46;100406.50;;;11.32;100.00
16525;BME280;8375;33.594;-117.718;2023-03-18T07:40:14;100405.78;;;11.29;100.00
16525;BME280;8375;33.594;-117.718;2023-03-18T07:42:43;100414.53;;;11.28;100.00
16525;BME280;8375;33.594;-117.718;2023-03-18T07:45:12;100419.25;;;11.23;100.00
16525;BME280;8375;33.594;-117.718;2023-03-18T07:47:41;100415.31;;;11.18;100.00
16525;BME280;8375;33.594;-117.718;2023-03-18T07:50:11;100412.16;;;11.14;100.00
16525;BME280;8375;33.594;-117.718;2023-03-18T07:52:40;100414.75;;;11.14;100.00
16525;BME280;8375;33.594;-117.718;2023-03-18T07:55:10;100416.63;;;11.12;100.00
16525;BME280;8375;33.594;-117.718;2023-03-18T07:57:39;100419.34;;;11.10;100.00
16525;BME280;8375;33.594;-117.718;2023-03-18T08:00:09;100414.38;;;11.07;100.00
16525;BME280;8375;33.594;-117.718;2023-03-18T08:02:39;100419.81;;;11.04;100.00
16525;BME280;8375;33.594;-117.718;2023-03-18T08:05:10;100416.13;;;10.95;100.00
16525;BME280;8375;33.594;-117.718;2023-03-18T08:07:39;100416.59;;;10.89;100.00
16525;BME280;8375;33.594;-117.718;2023-03-18T08:10:09;100407.16;;;10.88;100.00
16525;BME280;8375;33.594;-117.718;2023-03-18T08:12:38;100409.97;;;10.85;100.00
16525;BME280;8375;33.594;-117.718;2023-03-18T08:15:07;100406.66;;;10.83;100.00
16525;BME280;8375;33.594;-117.718;2023-03-18T08:17:37;100405.47;;;10.76;100.00
16525;BME280;8375;33.594;-117.718;2023-03-18T08:20:06;100400.38;;;10.74;100.00
16525;BME280;8375;33.594;-117.718;2023-03-18T08:22:37;100405.00;;;10.70;100.00
16525;BME280;8375;33.594;-117.718;2023-03-18T08:25:06;100397.66;;;10.64;100.00
16525;BME280;8375;33.594;-117.718;2023-03-18T08:27:35;100395.16;;;10.63;100.00
16525;BME280;8375;33.594;-117.718;2023-03-18T08:30:04;100388.44;;;10.60;100.00
16525;BME280;8375;33.594;-117.718;2023-03-18T08:32:34;100390.28;;;10.58;100.00
16525;BME280;8375;33.594;-117.718;2023-03-18T08:35:03;100385.31;;;10.55;100.00
16525;BME280;8375;33.594;-117.718;2023-03-18T08:37:31;100384.91;;;10.61;100.00
16525;BME280;8375;33.594;-117.718;2023-03-18T08:40:03;100387.59;;;10.60;100.00
16525;BME280;8375;33.594;-117.718;2023-03-18T08:42:32;100380.97;;;10.55;100.00
16525;BME280;8375;33.594;-117.718;2023-03-18T08:45:01;100379.81;;;10.60;100.00
16525;BME280;8375;33.594;-117.718;2023-03-18T08:47:30;100379.19;;;10.56;100.00
16525;BME280;8375;33.594;-117.718;2023-03-18T08:49:58;100372.34;;;10.55;100.00
16525;BME280;8375;33.594;-117.718;2023-03-18T08:52:27;100376.94;;;10.51;100.00
16525;BME280;8375;33.594;-117.718;2023-03-18T08:54:56;100378.94;;;10.48;100.00
16525;BME280;8375;33.594;-117.718;2023-03-18T08:57:26;100368.00;;;10.31;100.00
16525;BME280;8375;33.594;-117.718;2023-03-18T08:59:55;100371.44;;;10.32;100.00
16525;BME280;8375;33.594;-117.718;2023-03-18T09:02:24;100377.44;;;10.32;100.00
16525;BME280;8375;33.594;-117.718;2023-03-18T09:04:53;100373.56;;;10.38;100.00
16525;BME280;8375;33.594;-117.718;2023-03-18T09:07:22;100369.53;;;10.34;100.00
16525;BME280;8375;33.594;-117.718;2023-03-18T09:09:51;100369.88;;;10.29;100.00
16525;BME280;8375;33.594;-117.718;2023-03-18T09:12:19;100362.53;;;10.23;100.00
16525;BME280;8375;33.594;-117.718;2023-03-18T09:14:50;100367.44;;;10.15;100.00
16525;BME280;8375;33.594;-117.718;2023-03-18T09:17:19;100373.34;;;10.17;100.00
16525;BME280;8375;33.594;-117.718;2023-03-18T09:19:48;100363.91;;;10.16;100.00
16525;BME280;8375;33.594;-117.718;2023-03-18T09:22:17;100367.66;;;10.11;100.00
16525;BME280;8375;33.594;-117.718;2023-03-18T09:24:46;100361.53;;;10.12;100.00
16525;BME280;8375;33.594;-117.718;2023-03-18T09:27:15;100356.47;;;10.11;100.00
16525;BME280;8375;33.594;-117.718;2023-03-18T09:29:44;100368.16;;;10.17;100.00
16525;BME280;8375;33.594;-117.718;2023-03-18T09:32:15;100369.44;;;10.11;100.00
16525;BME280;8375;33.594;-117.718;2023-03-18T09:34:45;100365.69;;;10.15;100.00
16525;BME280;8375;33.594;-117.718;2023-03-18T09:37:13;100367.88;;;10.08;100.00
16525;BME280;8375;33.594;-117.718;2023-03-18T09:39:44;100366.25;;;10.07;100.00
16525;BME280;8375;33.594;-117.718;2023-03-18T09:42:25;100374.69;;;9.98;100.00
16525;BME280;8375;33.594;-117.718;2023-03-18T09:44:58;100370.16;;;9.89;100.00
16525;BME280;8375;33.594;-117.718;2023-03-18T09:47:49;100358.75;;;9.91;100.00
16525;BME280;8375;33.594;-117.718;2023-03-18T09:50:34;100357.81;;;9.92;100.00
16525;BME280;8375;33.594;-117.718;2023-03-18T09:53:18;100351.06;;;9.90;100.00
16525;BME280;8375;33.594;-117.718;2023-03-18T09:55:51;100346.66;;;9.79;100.00
16525;BME280;8375;33.594;-117.718;2023-03-18T09:58:23;100346.97;;;9.74;100.00
16525;BME280;8375;33.594;-117.718;2023-03-18T10:00:57;100350.91;;;9.80;100.00
16525;BME280;8375;33.594;-117.718;2023-03-18T10:03:32;100339.13;;;9.63;100.00
16525;BME280;8375;33.594;-117.718;2023-03-18T10:06:05;100334.50;;;9.55;100.00
16525;BME280;8375;33.594;-117.718;2023-03-18T10:08:48;100337.91;;;9.56;100.00
16525;BME280;8375;33.594;-117.718;2023-03-18T10:11:23;100344.03;;;9.54;100.00
16525;BME280;8375;33.594;-117.718;2023-03-18T10:14:19;100344.38;;;9.50;100.00
16525;BME280;8375;33.594;-117.718;2023-03-18T10:16:57;100338.53;;;9.46;100.00
16525;BME280;8375;33.594;-117.718;2023-03-18T10:19:32;100350.69;;;9.46;100.00
16525;BME280;8375;33.594;-117.718;2023-03-18T10:22:11;100344.88;;;9.42;100.00
16525;BME280;8375;33.594;-117.718;2023-03-18T10:24:49;100345.81;;;9.41;100.00
16525;BME280;8375;33.594;-117.718;2023-03-18T10:27:23;100342.28;;;9.42;100.00
16525;BME280;8375;33.594;-117.718;2023-03-18T10:29:58;100338.25;;;9.38;100.00
16525;BME280;8375;33.594;-117.718;2023-03-18T10:32:34;100335.88;;;9.35;100.00
16525;BME280;8375;33.594;-117.718;2023-03-18T10:35:20;100333.63;;;9.30;100.00
16525;BME280;8375;33.594;-117.718;2023-03-18T10:37:58;100331.97;;;9.29;100.00
16525;BME280;8375;33.594;-117.718;2023-03-18T10:40:33;100331.13;;;9.29;100.00
16525;BME280;8375;33.594;-117.718;2023-03-18T10:43:03;100320.38;;;9.22;100.00
16525;BME280;8375;33.594;-117.718;2023-03-18T10:45:37;100315.63;;;9.16;100.00
16525;BME280;8375;33.594;-117.718;2023-03-18T10:48:14;100307.94;;;9.14;100.00
16525;BME280;8375;33.594;-117.718;2023-03-18T10:50:53;100312.53;;;9.10;100.00
16525;BME280;8375;33.594;-117.718;2023-03-18T10:53:27;100308.66;;;9.16;100.00
16525;BME280;8375;33.594;-117.718;2023-03-18T10:56:01;100310.09;;;9.20;100.00
16525;BME280;8375;33.594;-117.718;2023-03-18T10:58:32;100304.94;;;9.20;100.00
16525;BME280;8375;33.594;-117.718;2023-03-18T11:01:01;100299.03;;;9.18;100.00
16525;BME280;8375;33.594;-117.718;2023-03-18T11:03:33;100297.59;;;9.14;100.00
16525;BME280;8375;33.594;-117.718;2023-03-18T11:06:06;100289.09;;;9.12;100.00
16525;BME280;8375;33.594;-117.718;2023-03-18T11:08:39;100295.72;;;9.16;100.00
16525;BME280;8375;33.594;-117.718;2023-03-18T11:11:29;100290.88;;;9.12;100.00
16525;BME280;8375;33.594;-117.718;2023-03-18T11:14:01;100282.38;;;9.09;100.00
16525;BME280;8375;33.594;-117.718;2023-03-18T11:16:36;100279.16;;;9.06;100.00
16525;BME280;8375;33.594;-117.718;2023-03-18T11:19:20;100276.56;;;9.06;100.00
16525;BME280;8375;33.594;-117.718;2023-03-18T11:22:14;100272.75;;;9.12;100.00
16525;BME280;8375;33.594;-117.718;2023-03-18T11:24:44;100278.34;;;9.05;100.00
16525;BME280;8375;33.594;-117.718;2023-03-18T11:27:32;100276.06;;;9.01;100.00
16525;BME280;8375;33.594;-117.718;2023-03-18T11:30:08;100283.72;;;9.02;100.00
16525;BME280;8375;33.594;-117.718;2023-03-18T11:32:53;100282.69;;;9.05;100.00
16525;BME280;8375;33.594;-117.718;2023-03-18T11:35:22;100277.00;;;9.00;100.00
16525;BME280;8375;33.594;-117.718;2023-03-18T11:37:53;100276.47;;;8.94;100.00
16525;BME280;8375;33.594;-117.718;2023-03-18T11:40:24;100265.09;;;8.84;100.00
16525;BME280;8375;33.594;-117.718;2023-03-18T11:42:55;100274.53;;;8.85;100.00
16525;BME280;8375;33.594;-117.718;2023-03-18T11:45:42;100263.34;;;8.85;100.00
16525;BME280;8375;33.594;-117.718;2023-03-18T11:48:15;100260.66;;;8.86;100.00
16525;BME280;8375;33.594;-117.718;2023-03-18T11:51:05;100258.38;;;8.82;100.00
16525;BME280;8375;33.594;-117.718;2023-03-18T11:53:49;100255.50;;;8.73;100.00
16525;BME280;8375;33.594;-117.718;2023-03-18T11:56:26;100253.19;;;8.69;100.00
16525;BME280;8375;33.594;-117.718;2023-03-18T11:59:14;100262.03;;;8.66;100.00
16525;BME280;8375;33.594;-117.718;2023-03-18T12:01:53;100260.38;;;8.65;100.00
16525;BME280;8375;33.594;-117.718;2023-03-18T12:04:53;100270.19;;;8.60;100.00
16525;BME280;8375;33.594;-117.718;2023-03-18T12:07:46;100277.53;;;8.53;100.00
16525;BME280;8375;33.594;-117.718;2023-03-18T12:10:23;100281.44;;;8.46;100.00
16525;BME280;8375;33.594;-117.718;2023-03-18T12:13:09;100288.09;;;8.50;100.00
16525;BME280;8375;33.594;-117.718;2023-03-18T12:15:46;100293.25;;;8.50;100.00
16525;BME280;8375;33.594;-117.718;2023-03-18T12:18:49;100303.78;;;8.47;100.00
16525;BME280;8375;33.594;-117.718;2023-03-18T12:21:42;100302.84;;;8.35;100.00
16525;BME280;8375;33.594;-117.718;2023-03-18T12:24:27;100307.25;;;8.20;100.00
16525;BME280;8375;33.594;-117.718;2023-03-18T12:27:02;100309.03;;;8.19;100.00
16525;BME280;8375;33.594;-117.718;2023-03-18T12:30:01;100307.47;;;8.17;100.00
16525;BME280;8375;33.594;-117.718;2023-03-18T12:32:37;100307.25;;;8.20;100.00
16525;BME280;8375;33.594;-117.718;2023-03-18T12:35:23;100314.69;;;8.12;100.00
16525;BME280;8375;33.594;-117.718;2023-03-18T12:38:10;100313.63;;;8.01;100.00
16525;BME280;8375;33.594;-117.718;2023-03-18T12:40:51;100323.44;;;7.96;100.00
16525;BME280;8375;33.594;-117.718;2023-03-18T12:43:38;100330.53;;;7.92;100.00
16525;BME280;8375;33.594;-117.718;2023-03-18T12:46:19;100328.69;;;7.95;100.00
16525;BME280;8375;33.594;-117.718;2023-03-18T12:48:53;100342.25;;;7.98;100.00